createdAt,value
2024-02-06T00:01:54.435Z,17.55
2024-02-06T00:04:21.327Z,16.42
2024-02-06T00:06:48.159Z,14.00
2024-02-06T00:09:15.269Z,13.60
2024-02-06T00:11:41.896Z,15.43
2024-02-06T00:14:11.442Z,15.25
2024-02-06T00:16:39.022Z,17.73
2024-02-06T00:19:09.032Z,15.55
2024-02-06T00:21:35.651Z,12.55
2024-02-06T00:24:02.314Z,14.90
2024-02-06T00:26:29.028Z,14.13
2024-02-06T00:28:56.059Z,15.18
2024-02-06T00:31:23.535Z,15.05
2024-02-06T00:33:50.846Z,14.13
2024-02-06T00:36:17.557Z,15.00
2024-02-06T00:38:44.147Z,13.57
2024-02-06T00:41:12.553Z,13.93
2024-02-06T00:43:39.367Z,12.07
2024-02-06T00:46:06.102Z,13.15
2024-02-06T00:48:33.005Z,13.23
2024-02-06T00:50:59.772Z,11.85
2024-02-06T00:53:26.386Z,17.20
2024-02-06T00:55:52.951Z,14.45
2024-02-06T00:58:19.559Z,11.32
2024-02-06T01:00:46.382Z,12.30
2024-02-06T01:03:13.021Z,11.88
2024-02-06T01:05:39.592Z,10.70
2024-02-06T01:08:06.544Z,16.75
2024-02-06T01:10:33.310Z,11.93
2024-02-06T01:12:59.946Z,11.85
2024-02-06T01:15:26.504Z,11.77
2024-02-06T01:17:53.071Z,13.13
2024-02-06T01:20:19.727Z,10.75
2024-02-06T01:22:46.316Z,12.75
2024-02-06T01:25:14.162Z,15.23
2024-02-06T01:27:40.918Z,9.75
2024-02-06T01:30:08.143Z,12.25
2024-02-06T01:32:34.797Z,9.93
2024-02-06T01:35:01.524Z,10.05
2024-02-06T01:37:28.188Z,9.77
2024-02-06T01:39:54.874Z,9.85
2024-02-06T01:42:21.503Z,13.23
2024-02-06T01:44:48.074Z,11.40
2024-02-06T01:47:15.245Z,9.45
2024-02-06T01:49:44.298Z,13.02
2024-02-06T01:52:12.893Z,10.68
2024-02-06T01:54:39.470Z,11.07
2024-02-06T01:57:06.759Z,10.10
2024-02-06T01:59:33.505Z,10.65
2024-02-06T02:02:00.399Z,10.00
2024-02-06T02:04:27.309Z,12.23
2024-02-06T02:06:55.767Z,11.10
2024-02-06T02:09:22.699Z,9.88
2024-02-06T02:11:49.405Z,10.30
2024-02-06T02:14:16.310Z,9.93
2024-02-06T02:16:42.943Z,11.48
2024-02-06T02:19:09.707Z,11.63
2024-02-06T02:21:36.480Z,9.32
2024-02-06T02:24:04.930Z,10.57
2024-02-06T02:26:32.018Z,10.77
2024-02-06T02:28:59.022Z,8.05
2024-02-06T02:31:26.647Z,10.02
2024-02-06T02:33:55.145Z,12.10
2024-02-06T02:36:22.012Z,10.75
2024-02-06T02:38:48.581Z,9.35
2024-02-06T02:41:15.280Z,9.07
2024-02-06T02:43:41.944Z,11.77
2024-02-06T02:46:08.573Z,10.95
2024-02-06T02:48:35.959Z,9.18
2024-02-06T02:51:02.688Z,9.13
2024-02-06T02:53:29.297Z,11.50
2024-02-06T02:55:55.887Z,10.35
2024-02-06T02:58:22.507Z,9.77
2024-02-06T03:00:49.349Z,9.45
2024-02-06T03:03:16.022Z,9.70
2024-02-06T03:05:42.682Z,8.65
2024-02-06T03:08:10.454Z,10.98
2024-02-06T03:10:37.119Z,9.95
2024-02-06T03:13:04.164Z,7.43
2024-02-06T03:15:30.932Z,7.07
2024-02-06T03:17:57.791Z,8.60
2024-02-06T03:20:24.424Z,9.07
2024-02-06T03:22:51.192Z,8.30
2024-02-06T03:25:18.047Z,11.68
2024-02-06T03:27:46.632Z,9.02
2024-02-06T03:30:14.661Z,7.55
2024-02-06T03:32:41.503Z,6.13
2024-02-06T03:35:08.921Z,8.25
2024-02-06T03:37:36.008Z,11.18
2024-02-06T03:40:03.133Z,8.15
2024-02-06T03:42:29.715Z,7.70
2024-02-06T03:44:56.318Z,8.35
2024-02-06T03:47:22.844Z,7.40
2024-02-06T03:49:49.647Z,9.48
2024-02-06T03:52:16.404Z,8.25
2024-02-06T03:54:43.030Z,10.40
2024-02-06T03:57:10.975Z,7.45
2024-02-06T03:59:37.504Z,7.88
2024-02-06T04:02:04.544Z,10.13
2024-02-06T04:04:31.530Z,9.98
2024-02-06T04:06:58.329Z,11.57
2024-02-06T04:09:25.067Z,14.27
2024-02-06T04:11:51.818Z,8.93
2024-02-06T04:14:18.429Z,7.80
2024-02-06T04:16:45.640Z,8.57
2024-02-06T04:19:12.785Z,6.57
2024-02-06T04:21:39.715Z,8.45
2024-02-06T04:24:07.226Z,9.15
2024-02-06T04:26:33.869Z,8.02
2024-02-06T04:29:00.477Z,8.43
2024-02-06T04:31:27.099Z,7.47
2024-02-06T04:33:54.070Z,7.10
2024-02-06T04:36:22.110Z,8.57
2024-02-06T04:38:48.690Z,8.25
2024-02-06T04:41:15.255Z,7.28
2024-02-06T04:43:42.997Z,8.00
2024-02-06T04:46:10.011Z,7.00
2024-02-06T04:48:36.745Z,8.40
2024-02-06T04:51:03.353Z,8.95
2024-02-06T04:53:32.629Z,8.73
2024-02-06T04:55:59.492Z,8.23
2024-02-06T04:58:26.590Z,8.38
2024-02-06T05:00:53.305Z,9.50
2024-02-06T05:03:20.416Z,8.80
2024-02-06T05:05:47.028Z,8.23
2024-02-06T05:08:13.658Z,11.90
2024-02-06T05:10:40.988Z,8.50
2024-02-06T05:13:08.524Z,9.98
2024-02-06T05:15:35.181Z,7.60
2024-02-06T05:18:01.973Z,11.75
2024-02-06T05:20:28.709Z,12.65
2024-02-06T05:22:55.336Z,10.57
2024-02-06T05:25:24.618Z,7.20
2024-02-06T05:27:51.816Z,10.07
2024-02-06T05:30:19.548Z,10.57
2024-02-06T05:32:46.250Z,10.63
2024-02-06T05:35:13.168Z,13.98
2024-02-06T05:37:40.169Z,13.32
2024-02-06T05:40:08.311Z,10.48
2024-02-06T05:42:34.987Z,13.32
2024-02-06T05:45:01.590Z,12.45
2024-02-06T05:47:28.959Z,14.88
2024-02-06T05:49:55.881Z,12.98
2024-02-06T05:52:22.800Z,12.30
2024-02-06T05:54:49.595Z,12.80
2024-02-06T05:57:16.208Z,11.63
2024-02-06T05:59:42.852Z,17.75
2024-02-06T06:02:09.741Z,17.60
2024-02-06T06:04:36.767Z,12.93
2024-02-06T06:07:03.609Z,16.60
2024-02-06T06:09:30.602Z,17.50
2024-02-06T06:11:57.342Z,16.05
2024-02-06T06:14:23.959Z,17.20
2024-02-06T06:16:50.533Z,15.85
2024-02-06T06:19:17.221Z,16.50
2024-02-06T06:21:44.226Z,17.67
2024-02-06T06:24:11.255Z,15.35
2024-02-06T06:26:38.743Z,17.42
2024-02-06T06:29:05.817Z,18.90
2024-02-06T06:31:32.475Z,17.00
2024-02-06T06:33:59.241Z,18.00
2024-02-06T06:36:26.034Z,17.23
2024-02-06T06:38:52.605Z,18.00
2024-02-06T06:41:19.223Z,18.67
2024-02-06T06:43:46.081Z,17.83
2024-02-06T06:46:12.749Z,19.17
2024-02-06T06:48:39.577Z,18.42
2024-02-06T06:51:06.164Z,19.55
2024-02-06T06:53:32.891Z,21.23
2024-02-06T06:55:59.513Z,17.63
2024-02-06T06:58:26.153Z,18.98
2024-02-06T07:00:54.418Z,16.08
2024-02-06T07:03:21.421Z,17.08
2024-02-06T07:05:52.490Z,24.27
2024-02-06T07:08:19.245Z,20.00
2024-02-06T07:10:45.983Z,19.00
2024-02-06T07:13:12.850Z,17.80
2024-02-06T07:15:39.464Z,18.52
2024-02-06T07:18:06.385Z,19.40
2024-02-06T07:20:33.095Z,18.02
2024-02-06T07:22:59.734Z,19.10
2024-02-06T07:25:26.318Z,20.42
2024-02-06T07:27:52.981Z,21.23
2024-02-06T07:30:27.593Z,19.83
2024-02-06T07:33:00.904Z,19.85
2024-02-06T07:35:27.657Z,15.50
2024-02-06T07:37:54.292Z,18.38
2024-02-06T07:42:50.833Z,20.85
2024-02-06T07:45:17.453Z,20.60
2024-02-06T07:47:45.100Z,21.70
2024-02-06T07:52:38.480Z,21.60
2024-02-06T07:55:05.733Z,18.92
2024-02-06T07:57:32.353Z,18.02
2024-02-06T07:59:58.952Z,17.35
2024-02-06T08:02:25.758Z,17.88
2024-02-06T08:04:54.574Z,16.85
2024-02-06T08:07:21.971Z,20.50
2024-02-06T08:09:49.063Z,17.73
2024-02-06T08:12:15.664Z,15.90
2024-02-06T08:14:43.175Z,21.05
2024-02-06T08:17:09.810Z,15.93
2024-02-06T08:19:36.526Z,21.48
2024-02-06T08:22:03.216Z,22.27
2024-02-06T08:24:29.837Z,19.55
2024-02-06T08:26:56.886Z,16.92
2024-02-06T08:29:23.610Z,16.65
2024-02-06T08:31:50.843Z,23.27
2024-02-06T08:34:17.689Z,19.15
2024-02-06T08:36:44.405Z,13.23
2024-02-06T08:39:10.993Z,17.88
2024-02-06T08:41:37.626Z,18.15
2024-02-06T08:44:04.465Z,14.77
2024-02-06T08:46:31.115Z,17.15
2024-02-06T08:48:58.082Z,16.75
2024-02-06T08:51:24.775Z,17.38
2024-02-06T08:53:51.437Z,14.27
2024-02-06T08:56:18.004Z,14.07
2024-02-06T08:58:44.692Z,15.93
2024-02-06T09:01:12.471Z,15.27
2024-02-06T09:03:39.677Z,21.02
2024-02-06T09:06:07.004Z,16.85
2024-02-06T09:08:34.506Z,17.55
2024-02-06T09:11:01.228Z,16.58
2024-02-06T09:13:27.895Z,20.55
2024-02-06T09:15:54.520Z,17.15
2024-02-06T09:18:21.358Z,14.68
2024-02-06T09:20:48.360Z,11.38
2024-02-06T09:23:14.920Z,14.43
2024-02-06T09:25:44.288Z,17.60
2024-02-06T09:28:10.867Z,15.52
2024-02-06T09:30:40.792Z,16.77
2024-02-06T09:33:08.191Z,16.90
2024-02-06T09:35:34.944Z,14.85
2024-02-06T09:38:01.691Z,17.30
2024-02-06T09:40:28.392Z,15.05
2024-02-06T09:42:56.202Z,15.93
2024-02-06T09:45:23.057Z,11.77
2024-02-06T09:47:49.666Z,16.80
2024-02-06T09:50:17.644Z,13.30
2024-02-06T09:52:49.165Z,11.65
2024-02-06T09:55:16.708Z,12.85
2024-02-06T09:57:45.836Z,16.45
2024-02-06T10:00:15.667Z,9.88
2024-02-06T10:02:44.295Z,14.93
2024-02-06T10:05:17.835Z,14.85
2024-02-06T10:10:15.663Z,13.23
2024-02-06T10:12:44.859Z,15.23
2024-02-06T10:15:20.170Z,13.23
2024-02-06T10:17:46.990Z,16.73
2024-02-06T10:20:14.390Z,15.15
2024-02-06T10:22:42.468Z,14.35
2024-02-06T10:25:12.853Z,13.90
2024-02-06T10:27:39.486Z,14.65
2024-02-06T10:30:11.208Z,12.13
2024-02-06T10:32:39.404Z,14.80
2024-02-06T10:35:09.028Z,17.80
2024-02-06T10:37:40.326Z,13.98
2024-02-06T10:40:12.666Z,13.45
2024-02-06T10:43:24.741Z,14.77
2024-02-06T10:45:28.151Z,15.50
2024-02-06T10:48:02.005Z,13.48
2024-02-06T10:50:29.499Z,11.18
2024-02-06T10:52:57.057Z,11.52
2024-02-06T10:55:24.372Z,12.35
2024-02-06T10:58:08.516Z,13.02
2024-02-06T11:00:36.754Z,12.07
2024-02-06T11:03:10.166Z,12.20
2024-02-06T11:05:45.540Z,11.23
2024-02-06T11:08:21.250Z,13.77
2024-02-06T11:10:57.102Z,14.68
2024-02-06T11:13:47.759Z,12.25
2024-02-06T11:16:19.459Z,13.05
2024-02-06T11:19:01.175Z,9.20
2024-02-06T11:21:30.049Z,12.80
2024-02-06T11:23:58.275Z,11.15
2024-02-06T11:26:24.906Z,11.23
2024-02-06T11:28:52.385Z,14.32
2024-02-06T11:31:20.730Z,10.43
2024-02-06T11:33:47.493Z,10.63
2024-02-06T11:36:17.720Z,11.27
2024-02-06T11:38:46.175Z,9.05
2024-02-06T11:41:15.567Z,9.98
2024-02-06T11:43:43.518Z,9.65
2024-02-06T11:46:10.617Z,9.10
2024-02-06T11:48:37.380Z,11.52
2024-02-06T11:51:05.678Z,12.60
2024-02-06T11:53:32.983Z,9.52
2024-02-06T11:56:01.446Z,10.50
2024-02-06T11:58:28.378Z,12.25
2024-02-06T12:00:57.258Z,10.65
2024-02-06T12:03:23.920Z,11.27
2024-02-06T12:05:51.007Z,15.27
2024-02-06T12:08:23.316Z,8.80
2024-02-06T12:10:50.834Z,9.30
2024-02-06T12:13:19.124Z,10.00
2024-02-06T12:15:46.661Z,10.95
2024-02-06T12:18:15.455Z,11.65
2024-02-06T12:20:42.427Z,8.38
2024-02-06T12:23:09.998Z,10.02
2024-02-06T12:25:42.060Z,13.85
2024-02-06T12:28:14.316Z,11.15
2024-02-06T12:30:51.057Z,8.70
2024-02-06T12:33:18.482Z,6.88
2024-02-06T12:35:46.174Z,8.57
2024-02-06T12:38:13.188Z,13.90
2024-02-06T12:40:39.910Z,8.65
2024-02-06T12:43:08.026Z,6.90
2024-02-06T12:45:36.076Z,7.18
2024-02-06T12:48:04.024Z,8.65
2024-02-06T12:50:31.243Z,8.38
2024-02-06T12:53:01.131Z,8.73
2024-02-06T12:55:30.598Z,13.63
2024-02-06T12:57:58.199Z,8.65
2024-02-06T13:00:25.739Z,9.02
2024-02-06T13:03:05.354Z,8.60
2024-02-06T13:05:35.853Z,10.60
2024-02-06T13:08:14.850Z,9.90
2024-02-06T13:10:41.640Z,11.13
2024-02-06T13:13:09.240Z,12.27
2024-02-06T13:15:37.011Z,8.43
2024-02-06T13:18:08.547Z,9.77
2024-02-06T13:20:40.993Z,10.32
2024-02-06T13:23:15.475Z,11.98
2024-02-06T13:25:42.573Z,13.25
2024-02-06T13:28:09.723Z,8.70
2024-02-06T13:30:37.934Z,11.23
2024-02-06T13:33:06.679Z,9.98
2024-02-06T13:35:33.627Z,7.85
2024-02-06T13:38:04.978Z,13.77
2024-02-06T13:40:31.997Z,14.15
2024-02-06T13:43:01.640Z,11.13
2024-02-06T13:45:28.309Z,9.27
2024-02-06T13:47:55.184Z,7.85
2024-02-06T13:50:23.074Z,12.07
2024-02-06T13:52:50.125Z,11.07
2024-02-06T13:55:17.215Z,13.77
2024-02-06T13:57:44.091Z,11.88
2024-02-06T14:00:14.354Z,8.65
2024-02-06T14:02:42.383Z,11.00
2024-02-06T14:05:09.544Z,11.85
2024-02-06T14:07:36.243Z,10.10
2024-02-06T14:10:03.493Z,10.63
2024-02-06T14:12:36.398Z,11.13
2024-02-06T14:15:10.869Z,11.25
2024-02-06T14:17:38.764Z,12.18
2024-02-06T14:22:34.445Z,10.95
2024-02-06T14:25:01.979Z,10.93
2024-02-06T14:27:28.582Z,11.63
2024-02-06T14:29:55.184Z,11.75
2024-02-06T14:32:21.848Z,10.32
2024-02-06T14:34:49.190Z,11.45
2024-02-06T14:37:16.078Z,11.05
2024-02-06T14:39:43.101Z,11.77
2024-02-06T14:42:09.845Z,9.10
2024-02-06T14:44:43.834Z,12.45
2024-02-06T14:47:14.198Z,11.32
2024-02-06T14:49:40.920Z,11.65
2024-02-06T14:52:07.696Z,10.73
2024-02-06T14:54:34.394Z,13.60
2024-02-06T14:57:00.969Z,12.93
2024-02-06T14:59:28.834Z,7.55
2024-02-06T15:01:55.492Z,12.88
2024-02-06T15:04:23.298Z,12.18
2024-02-06T15:06:49.938Z,10.73
2024-02-06T15:09:16.865Z,12.25
2024-02-06T15:11:43.796Z,15.77
2024-02-06T15:14:10.475Z,11.27
2024-02-06T15:16:41.471Z,10.30
2024-02-06T15:19:09.733Z,12.35
2024-02-06T15:21:36.804Z,6.75
2024-02-06T15:24:03.699Z,8.25
2024-02-06T15:26:34.986Z,9.73
2024-02-06T15:29:01.799Z,10.20
2024-02-06T15:31:28.644Z,11.60
2024-02-06T15:33:55.485Z,14.50
2024-02-06T15:36:22.168Z,8.48
2024-02-06T15:38:48.967Z,11.60
2024-02-06T15:41:17.284Z,8.70
2024-02-06T15:43:44.270Z,10.63
2024-02-06T15:46:11.978Z,15.02
2024-02-06T15:48:47.966Z,10.57
2024-02-06T15:51:15.283Z,11.07
2024-02-06T15:53:42.154Z,10.32
2024-02-06T15:56:09.287Z,14.23
2024-02-06T15:58:36.604Z,9.82
2024-02-06T16:01:03.544Z,10.90
2024-02-06T16:03:30.225Z,14.30
2024-02-06T16:05:57.448Z,10.00
2024-02-06T16:08:24.078Z,12.50
2024-02-06T16:10:50.862Z,10.07
2024-02-06T16:13:19.867Z,13.50
2024-02-06T16:15:48.673Z,12.60
2024-02-06T16:18:16.624Z,12.70
2024-02-06T16:20:43.605Z,11.15
2024-02-06T16:23:10.487Z,11.52
2024-02-06T16:25:37.137Z,12.90
2024-02-06T16:28:03.967Z,10.23
2024-02-06T16:30:30.593Z,12.02
2024-02-06T16:32:57.237Z,10.40
2024-02-06T16:35:23.892Z,10.50
2024-02-06T16:37:50.665Z,15.60
2024-02-06T16:40:17.521Z,12.90
2024-02-06T16:42:45.133Z,9.43
2024-02-06T16:45:12.767Z,13.45
2024-02-06T16:47:39.646Z,10.95
2024-02-06T16:50:07.088Z,15.93
2024-02-06T16:52:33.891Z,12.98
2024-02-06T16:55:00.897Z,18.98
2024-02-06T16:57:27.517Z,11.98
2024-02-06T16:59:54.058Z,12.60
2024-02-06T17:02:21.158Z,15.27
2024-02-06T17:04:47.895Z,13.48
2024-02-06T17:07:14.802Z,16.60
2024-02-06T17:09:41.497Z,13.35
2024-02-06T17:12:08.126Z,13.52
2024-02-06T17:14:35.040Z,16.70
2024-02-06T17:17:01.654Z,14.80
2024-02-06T17:19:28.348Z,13.57
2024-02-06T17:21:55.130Z,12.77
2024-02-06T17:24:21.736Z,14.57
2024-02-06T17:26:48.460Z,15.23
2024-02-06T17:29:15.101Z,15.50
2024-02-06T17:31:41.923Z,13.45
2024-02-06T17:34:08.780Z,14.85
2024-02-06T17:36:39.669Z,14.32
2024-02-06T17:39:06.786Z,13.10
2024-02-06T17:41:33.401Z,15.90
2024-02-06T17:44:00.053Z,16.50
2024-02-06T17:46:26.835Z,17.48
2024-02-06T17:48:53.470Z,13.85
2024-02-06T17:51:20.035Z,10.95
2024-02-06T17:53:46.606Z,15.88
2024-02-06T17:56:13.168Z,16.00
2024-02-06T17:58:41.801Z,16.30
2024-02-06T18:01:09.743Z,17.55
2024-02-06T18:03:36.437Z,23.98
2024-02-06T18:06:03.839Z,17.52
2024-02-06T18:08:30.667Z,16.63
2024-02-06T18:10:57.484Z,20.15
2024-02-06T18:13:24.214Z,13.48
2024-02-06T18:15:50.858Z,17.80
2024-02-06T18:18:17.640Z,20.27
2024-02-06T18:20:44.268Z,12.75
2024-02-06T18:23:10.876Z,13.93
2024-02-06T18:25:37.530Z,16.85
2024-02-06T18:28:04.457Z,16.13
2024-02-06T18:30:31.089Z,16.15
2024-02-06T18:32:57.692Z,21.40
2024-02-06T18:35:24.392Z,25.52
2024-02-06T18:37:51.327Z,25.55
2024-02-06T18:40:18.189Z,23.65
2024-02-06T18:42:44.886Z,24.35
2024-02-06T18:45:11.563Z,28.27
2024-02-06T18:47:38.146Z,27.75
2024-02-06T18:50:05.105Z,30.98
2024-02-06T18:52:31.781Z,31.70
2024-02-06T18:54:58.426Z,30.30
2024-02-06T18:57:25.115Z,30.38
2024-02-06T18:59:51.715Z,33.95
2024-02-06T19:02:18.316Z,32.53
2024-02-06T19:04:45.032Z,32.65
2024-02-06T19:07:11.881Z,33.03
2024-02-06T19:09:38.732Z,35.53
2024-02-06T19:12:05.852Z,34.72
2024-02-06T19:14:33.140Z,31.58
2024-02-06T19:16:59.676Z,31.20
2024-02-06T19:19:26.490Z,35.22
2024-02-06T19:21:53.347Z,34.00
2024-02-06T19:24:20.079Z,35.72
2024-02-06T19:26:46.782Z,35.33
2024-02-06T19:29:13.602Z,34.67
2024-02-06T19:31:41.470Z,29.60
2024-02-06T19:34:08.734Z,35.50
2024-02-06T19:36:36.055Z,33.88
2024-02-06T19:39:03.944Z,34.60
2024-02-06T19:41:31.399Z,31.45
2024-02-06T19:43:59.491Z,31.92
2024-02-06T19:46:26.975Z,36.55
2024-02-06T19:48:54.511Z,31.02
2024-02-06T19:51:23.169Z,35.88
2024-02-06T19:53:50.014Z,34.63
2024-02-06T19:56:17.631Z,27.98
2024-02-06T19:58:44.440Z,30.90
2024-02-06T20:01:21.735Z,36.25
2024-02-06T20:03:48.581Z,33.65
2024-02-06T20:06:17.979Z,35.25
2024-02-06T20:08:45.999Z,36.92
2024-02-06T20:11:13.001Z,35.83
2024-02-06T20:13:39.914Z,38.55
2024-02-06T20:16:07.064Z,40.78
2024-02-06T20:18:33.833Z,41.85
2024-02-06T20:21:00.895Z,45.03
2024-02-06T20:23:29.430Z,44.13
2024-02-06T20:25:56.326Z,49.30
2024-02-06T20:28:23.061Z,48.65
2024-02-06T20:30:53.370Z,47.72
2024-02-06T20:33:20.012Z,50.25
2024-02-06T20:35:46.698Z,53.70
2024-02-06T20:38:13.281Z,52.20
2024-02-06T20:40:39.834Z,54.38
2024-02-06T20:43:06.601Z,52.08
2024-02-06T20:45:34.852Z,50.55
2024-02-06T20:48:04.761Z,54.95
2024-02-06T20:50:32.416Z,54.33
2024-02-06T20:52:59.092Z,53.40
2024-02-06T20:55:25.787Z,54.58
2024-02-06T20:57:52.520Z,53.08
2024-02-06T21:00:19.505Z,56.35
2024-02-06T21:02:46.778Z,50.30
2024-02-06T21:05:13.571Z,56.72
2024-02-06T21:07:40.369Z,53.25
2024-02-06T21:10:08.419Z,46.85
2024-02-06T21:12:35.131Z,49.80
2024-02-06T21:15:01.945Z,50.55
2024-02-06T21:17:30.883Z,49.00
2024-02-06T21:19:58.147Z,47.35
2024-02-06T21:22:24.919Z,47.05
2024-02-06T21:24:51.594Z,47.85
2024-02-06T21:27:18.192Z,40.58
2024-02-06T21:29:44.831Z,46.70
2024-02-06T21:32:11.455Z,46.80
2024-02-06T21:34:39.581Z,44.45
2024-02-06T21:37:06.247Z,43.50
2024-02-06T21:39:34.157Z,43.50
2024-02-06T21:42:01.206Z,43.75
2024-02-06T21:44:27.809Z,42.38
2024-02-06T21:46:54.556Z,45.95
2024-02-06T21:49:21.303Z,44.33
2024-02-06T21:51:48.080Z,40.60
2024-02-06T21:54:14.674Z,42.15
2024-02-06T21:56:42.045Z,45.30
2024-02-06T21:59:08.659Z,42.20
2024-02-06T22:01:35.331Z,46.55
2024-02-06T22:04:02.125Z,45.58
2024-02-06T22:06:28.798Z,41.35
2024-02-06T22:08:55.643Z,44.53
2024-02-06T22:11:24.232Z,45.83
2024-02-06T22:13:50.915Z,46.58
2024-02-06T22:16:17.562Z,41.63
2024-02-06T22:18:44.178Z,42.10
2024-02-06T22:21:11.068Z,43.42
2024-02-06T22:23:37.783Z,38.70
2024-02-06T22:26:04.486Z,41.90
2024-02-06T22:28:31.739Z,42.80
2024-02-06T22:30:58.364Z,41.53
2024-02-06T22:33:25.100Z,41.10
2024-02-06T22:35:51.781Z,38.22
2024-02-06T22:38:18.493Z,39.35
2024-02-06T22:40:46.445Z,34.85
2024-02-06T22:43:13.542Z,39.65
2024-02-06T22:45:40.119Z,38.35
2024-02-06T22:48:07.186Z,36.95
2024-02-06T22:50:34.560Z,39.40
2024-02-06T22:53:01.125Z,35.25
2024-02-06T22:55:27.723Z,35.42
2024-02-06T22:57:54.276Z,33.38
2024-02-06T23:00:30.290Z,34.40
2024-02-06T23:02:58.579Z,33.10
2024-02-06T23:05:27.103Z,33.53
2024-02-06T23:07:54.776Z,33.88
2024-02-06T23:10:21.591Z,33.60
2024-02-06T23:12:49.286Z,35.30
2024-02-06T23:15:16.993Z,33.22
2024-02-06T23:17:44.755Z,32.50
2024-02-06T23:20:11.824Z,33.20
2024-02-06T23:22:38.982Z,30.00
2024-02-06T23:25:06.735Z,28.65
2024-02-06T23:27:33.379Z,30.08
2024-02-06T23:30:00.721Z,32.10
2024-02-06T23:32:27.894Z,27.05
2024-02-06T23:34:56.882Z,27.63
2024-02-06T23:37:26.167Z,32.95
2024-02-06T23:39:53.608Z,30.40
2024-02-06T23:42:20.253Z,27.33
2024-02-06T23:44:46.889Z,28.30
2024-02-06T23:47:13.920Z,27.70
2024-02-06T23:49:40.940Z,27.23
2024-02-06T23:52:07.703Z,27.73
2024-02-06T23:54:35.393Z,27.20
2024-02-06T23:57:02.028Z,27.30
2024-02-06T23:59:29.159Z,26.55
